Time;durP1;ratioP1;P1;durP2;ratioP2;P2;SDS_P1;SDS_P2;PMS_P1;PMS_P2;Temp;Humidity;BMP_temperature;BMP_pressure;BME280_temperature;BME280_humidity;BME280_pressure;Samples;Min_cycle;Max_cycle;Signal;HPM_P1;HPM_P2
2023/04/17 00:01:13;;;;;;;5.97;5.47;;;;;;;4.56;nan;97261.03;4995189;28;20204;-71
2023/04/17 00:03:43;;;;;;;5.73;5.33;;;;;;;4.51;nan;97255.34;4987465;28;20525;-70
2023/04/17 00:06:12;;;;;;;6.30;5.90;;;;;;;4.54;nan;97265.56;4992537;28;20220;-71
2023/04/17 00:08:42;;;;;;;6.03;5.43;;;;;;;4.53;nan;97256.03;5014983;28;20342;-69
2023/04/17 00:11:09;;;;;;;5.80;5.40;;;;;;;4.48;nan;97266.97;5005609;28;20254;-71
2023/04/17 00:13:37;;;;;;;6.70;6.10;;;;;;;4.42;nan;97260.50;4986188;28;20970;-71
2023/04/17 00:16:05;;;;;;;6.50;6.00;;;;;;;4.42;nan;97262.31;5010428;28;20234;-70
2023/04/17 00:18:33;;;;;;;6.00;5.60;;;;;;;4.41;nan;97256.22;4960689;28;20208;-69
2023/04/17 00:21:02;;;;;;;5.90;5.50;;;;;;;4.38;nan;97266.19;5013009;28;20289;-70
2023/04/17 00:23:30;;;;;;;7.03;6.47;;;;;;;4.26;nan;97274.22;5010221;28;20586;-70
2023/04/17 00:25:58;;;;;;;6.63;6.13;;;;;;;4.22;nan;97264.97;5010424;28;20224;-70
2023/04/17 00:28:25;;;;;;;5.90;5.50;;;;;;;4.18;nan;97272.31;4984981;28;20357;-70
2023/04/17 00:30:53;;;;;;;6.17;5.77;;;;;;;4.14;nan;97255.19;5014044;28;20215;-71
2023/04/17 00:33:21;;;;;;;5.80;5.30;;;;;;;4.22;nan;97269.41;4962787;28;21129;-71
2023/04/17 00:35:48;;;;;;;5.57;5.13;;;;;;;4.14;nan;97255.19;5012517;28;20489;-70
2023/04/17 00:38:17;;;;;;;5.23;4.83;;;;;;;4.23;nan;97265.81;5008983;28;20644;-71
2023/04/17 00:40:45;;;;;;;6.50;6.00;;;;;;;4.18;nan;97258.34;5011711;28;20215;-70
2023/04/17 00:43:13;;;;;;;5.83;5.43;;;;;;;4.18;nan;97258.34;5002716;28;20774;-71
2023/04/17 00:45:41;;;;;;;5.93;5.43;;;;;;;4.19;nan;97255.59;4996418;28;20493;-69
2023/04/17 00:48:09;;;;;;;5.63;5.23;;;;;;;4.13;nan;97252.72;4953107;28;20878;-71
2023/04/17 00:50:37;;;;;;;6.43;5.93;;;;;;;4.15;nan;97264.69;5013719;28;20209;-69
2023/04/17 00:53:05;;;;;;;6.37;5.77;;;;;;;4.14;nan;97259.63;5012005;28;20291;-70
2023/04/17 00:55:35;;;;;;;6.17;5.77;;;;;;;4.12;nan;97258.94;5007176;28;20464;-72
2023/04/17 00:58:03;;;;;;;6.00;5.50;;;;;;;4.12;nan;97264.19;5014424;28;20770;-70
2023/04/17 01:00:31;;;;;;;6.30;5.67;;;;;;;4.08;nan;97263.63;4983086;28;20781;-70
2023/04/17 01:02:58;;;;;;;5.93;5.53;;;;;;;4.04;nan;97265.72;5008383;28;20232;-70
2023/04/17 01:05:27;;;;;;;6.20;5.63;;;;;;;4.04;nan;97263.09;4956931;28;20645;-69
2023/04/17 01:07:55;;;;;;;6.53;6.03;;;;;;;4.03;nan;97252.72;5010544;28;20231;-70
2023/04/17 01:10:23;;;;;;;6.43;5.93;;;;;;;3.98;nan;97255.78;4979904;28;21085;-70
2023/04/17 01:13:02;;;;;;;6.13;5.63;;;;;;;4.00;nan;97259.09;5016308;28;20288;-70
2023/04/17 01:15:30;;;;;;;5.73;5.33;;;;;;;4.00;nan;97256.47;4983130;28;20242;-70
2023/04/17 01:17:58;;;;;;;6.03;5.63;;;;;;;3.99;nan;97256.59;5009087;28;20212;-69
2023/04/17 01:20:30;;;;;;;6.50;5.90;;;;;;;4.00;nan;97259.09;4960731;28;20383;-69
2023/04/17 01:22:58;;;;;;;6.27;5.77;;;;;;;3.96;nan;97259.50;5009818;28;20226;-70
2023/04/17 01:25:28;;;;;;;5.83;5.43;;;;;;;3.90;nan;97258.25;5004977;28;20215;-70
2023/04/17 01:27:56;;;;;;;6.30;5.80;;;;;;;3.84;nan;97256.19;5004276;28;20255;-69
2023/04/17 01:30:24;;;;;;;5.87;5.47;;;;;;;3.83;nan;97262.41;4985221;28;20211;-71
2023/04/17 01:32:53;;;;;;;6.20;5.70;;;;;;;3.83;nan;97265.88;5005687;28;20477;-71
2023/04/17 01:35:21;;;;;;;6.10;5.60;;;;;;;3.78;nan;97264.63;4954171;28;20449;-70
2023/04/17 01:37:49;;;;;;;6.37;5.83;;;;;;;3.71;nan;97266.97;5011651;28;20200;-71
2023/04/17 01:40:17;;;;;;;5.23;4.93;;;;;;;3.67;nan;97268.22;5009629;28;20246;-71
2023/04/17 01:42:46;;;;;;;5.93;5.53;;;;;;;3.65;nan;97262.28;5011946;28;20329;-70
2023/04/17 01:45:14;;;;;;;5.63;5.23;;;;;;;3.57;nan;97261.19;5008901;28;20281;-69
2023/04/17 01:47:42;;;;;;;5.60;5.20;;;;;;;3.59;nan;97268.88;4986369;28;20530;-70
2023/04/17 01:50:11;;;;;;;6.03;5.60;;;;;;;-148.82;100.00;60434.72;4939964;28;20798;-71
2023/04/17 01:52:39;;;;;;;6.03;5.53;;;;;;;-148.82;100.00;60434.72;5007792;28;20604;-69
2023/04/17 01:55:07;;;;;;;6.07;5.57;;;;;;;-148.82;100.00;60434.72;5006172;28;20635;-71
2023/04/17 01:57:35;;;;;;;6.33;5.83;;;;;;;-148.82;100.00;60434.72;5011777;28;20747;-69
2023/04/17 02:00:06;;;;;;;5.67;5.00;;;;;;;-148.82;100.00;60434.72;5010558;28;20218;-70
2023/04/17 02:02:34;;;;;;;6.87;6.27;;;;;;;-148.82;100.00;60434.72;4986679;28;21525;-71
2023/04/17 02:05:07;;;;;;;6.60;6.10;;;;;;;-148.82;100.00;60434.72;4969898;28;20212;-71
2023/04/17 02:07:37;;;;;;;6.37;5.87;;;;;;;-148.82;100.00;60434.72;4998053;28;20269;-70
2023/04/17 02:10:06;;;;;;;6.90;6.20;;;;;;;-148.82;100.00;60434.72;4989421;28;20211;-70
2023/04/17 02:12:33;;;;;;;6.20;5.77;;;;;;;-148.82;100.00;60434.72;5010764;28;20919;-69
2023/04/17 02:15:01;;;;;;;6.60;6.20;;;;;;;3.44;nan;97271.13;5011980;28;20496;-71
2023/04/17 02:17:30;;;;;;;6.00;5.50;;;;;;;3.46;nan;97266.56;4983906;28;20558;-70
2023/04/17 02:20:05;;;;;;;7.07;6.57;;;;;;;3.50;nan;97267.09;5008762;28;20211;-71
2023/04/17 02:22:33;;;;;;;6.50;5.87;;;;;;;-148.82;100.00;60434.72;4988566;28;20440;-70
2023/04/17 02:25:01;;;;;;;6.73;6.23;;;;;;;-148.82;100.00;60434.72;5010180;28;20775;-70
2023/04/17 02:27:30;;;;;;;6.80;6.30;;;;;;;-148.82;100.00;60434.72;5007289;28;20387;-70
2023/04/17 02:29:57;;;;;;;6.67;6.17;;;;;;;-148.82;100.00;60434.72;5011183;28;20260;-70
2023/04/17 02:32:25;;;;;;;6.87;6.27;;;;;;;-148.82;100.00;60434.72;4985775;28;23024;-70
2023/04/17 02:34:55;;;;;;;6.07;5.60;;;;;;;3.46;nan;97287.53;5008729;28;20204;-69
2023/04/17 02:37:22;;;;;;;7.03;6.47;;;;;;;3.47;nan;97287.38;4956036;28;20596;-69
2023/04/17 02:39:50;;;;;;;7.30;6.77;;;;;;;3.47;nan;97290.00;5010614;28;20954;-70
2023/04/17 02:42:18;;;;;;;6.93;6.43;;;;;;;3.42;nan;97280.91;5009090;28;20208;-71
2023/04/17 02:44:46;;;;;;;6.83;6.33;;;;;;;3.39;nan;97283.78;5009365;28;20313;-69
2023/04/17 02:47:13;;;;;;;6.40;5.90;;;;;;;3.39;nan;97286.38;5004946;28;20231;-71
2023/04/17 02:49:41;;;;;;;6.70;6.20;;;;;;;3.37;nan;97286.53;4989582;28;20569;-70
2023/04/17 02:52:10;;;;;;;6.87;6.23;;;;;;;-148.82;100.00;60434.72;4957076;28;20215;-71
2023/04/17 02:54:38;;;;;;;6.60;6.03;;;;;;;-148.82;100.00;60434.72;5011923;28;20647;-70
2023/04/17 02:57:06;;;;;;;6.90;6.30;;;;;;;-148.82;100.00;60434.72;5014245;28;20210;-71
2023/04/17 02:59:33;;;;;;;6.40;6.00;;;;;;;-148.82;100.00;60434.72;5009242;28;20531;-69
2023/04/17 03:02:03;;;;;;;6.63;6.03;;;;;;;-148.82;100.00;60434.72;5010822;28;20218;-71
2023/04/17 03:04:33;;;;;;;6.70;6.20;;;;;;;-148.82;100.00;60434.72;4983645;28;20908;-70
2023/04/17 03:07:01;;;;;;;7.73;6.80;;;;;;;3.25;nan;97277.97;4959274;28;20227;-71
2023/04/17 03:09:30;;;;;;;6.90;6.33;;;;;;;-148.82;100.00;60434.72;5009147;28;20227;-70
2023/04/17 03:11:57;;;;;;;6.60;6.00;;;;;;;-148.82;100.00;60434.72;4985993;28;20203;-70
2023/04/17 03:14:25;;;;;;;6.97;6.40;;;;;;;-148.82;100.00;60434.72;5006926;28;20228;-69
2023/04/17 03:16:52;;;;;;;6.83;6.23;;;;;;;3.25;nan;97277.97;5007840;28;20207;-71
2023/04/17 03:19:20;;;;;;;7.30;6.70;;;;;;;3.29;nan;97276.72;4988121;28;20526;-70
2023/04/17 03:21:48;;;;;;;6.40;5.90;;;;;;;-148.82;100.00;60434.72;4987757;28;20207;-71
2023/04/17 03:24:16;;;;;;;9.88;9.07;;;;;;;3.26;nan;97279.63;4958335;28;21451;-68
2023/04/17 03:26:45;;;;;;;7.73;7.13;;;;;;;-148.82;100.00;60434.72;5012999;28;20253;-70
2023/04/17 03:29:13;;;;;;;8.07;7.37;;;;;;;-148.82;100.00;60434.72;5005054;28;20227;-68
2023/04/17 03:31:41;;;;;;;7.70;7.00;;;;;;;-148.82;100.00;60434.72;5009019;28;20204;-68
2023/04/17 03:34:08;;;;;;;7.60;6.90;;;;;;;-148.82;100.00;60434.72;5007547;28;20400;-71
2023/04/17 03:36:36;;;;;;;8.07;7.37;;;;;;;-148.82;100.00;60434.72;4992741;28;20211;-69
2023/04/17 03:39:04;;;;;;;7.83;7.13;;;;;;;-148.82;100.00;60434.72;4959905;28;20369;-68
2023/04/17 03:41:31;;;;;;;7.60;6.90;;;;;;;-148.82;100.00;60434.72;5009219;28;21024;-69
2023/04/17 03:44:00;;;;;;;7.47;6.83;;;;;;;3.21;nan;97294.06;4988322;28;20444;-68
2023/04/17 03:46:28;;;;;;;7.63;7.03;;;;;;;3.21;nan;97294.06;5011755;28;20211;-68
2023/04/17 03:48:56;;;;;;;8.80;8.00;;;;;;;-148.82;100.00;60434.72;5011968;28;20357;-68
2023/04/17 03:51:23;;;;;;;9.23;8.37;;;;;;;-148.82;100.00;60434.72;4984483;28;20209;-71
2023/04/17 03:53:51;;;;;;;8.67;7.73;;;;;;;-148.82;100.00;60434.72;4961377;28;20242;-71
2023/04/17 03:56:19;;;;;;;7.90;7.13;;;;;;;-148.82;100.00;60434.72;5007889;28;20220;-70
2023/04/17 03:58:46;;;;;;;8.30;7.60;;;;;;;-148.82;100.00;60434.72;4989406;28;20467;-70
2023/04/17 04:01:16;;;;;;;8.37;7.23;;;;;;;-148.82;100.00;60434.72;5010400;28;20204;-69
2023/04/17 04:03:43;;;;;;;7.93;7.23;;;;;;;-148.82;100.00;60434.72;5006660;28;20224;-70
2023/04/17 04:06:11;;;;;;;8.23;7.53;;;;;;;-148.82;100.00;60434.72;4991198;28;20211;-70
2023/04/17 04:08:44;;;;;;;7.40;6.80;;;;;;;-148.82;100.00;60434.72;4975442;28;20909;-71
2023/04/17 04:11:11;;;;;;;7.90;6.97;;;;;;;-148.82;100.00;60434.72;5016917;28;20678;-69
2023/04/17 04:13:39;;;;;;;7.53;6.93;;;;;;;-148.82;100.00;60434.72;4990113;28;20228;-70
2023/04/17 04:16:08;;;;;;;7.40;6.70;;;;;;;-148.82;100.00;60434.72;5017665;28;20230;-72
2023/04/17 04:18:37;;;;;;;8.17;7.47;;;;;;;-148.82;100.00;60434.72;4982837;28;20824;-70
2023/04/17 04:21:05;;;;;;;8.33;7.63;;;;;;;-148.82;100.00;60434.72;4992596;28;20349;-70
2023/04/17 04:23:36;;;;;;;9.00;8.23;;;;;;;-148.82;100.00;60434.72;5013445;28;20219;-70
2023/04/17 04:26:04;;;;;;;7.87;7.17;;;;;;;-148.82;100.00;60434.72;4960042;28;20381;-70
2023/04/17 04:28:32;;;;;;;8.00;7.30;;;;;;;-148.82;100.00;60434.72;5010587;28;20223;-69
2023/04/17 04:31:01;;;;;;;7.47;6.83;;;;;;;-148.82;100.00;60434.72;4987940;28;20388;-71
2023/04/17 04:33:29;;;;;;;7.27;6.67;;;;;;;-148.82;100.00;60434.72;5013528;28;20235;-70
2023/04/17 04:36:00;;;;;;;8.03;7.33;;;;;;;-148.82;100.00;60434.72;4996930;28;20742;-71
2023/04/17 04:38:31;;;;;;;7.97;7.27;;;;;;;-148.82;100.00;60434.72;5007197;28;20227;-70
2023/04/17 04:41:04;;;;;;;8.00;7.23;;;;;;;-148.82;100.00;60434.72;4964360;28;20291;-70
2023/04/17 04:43:33;;;;;;;8.20;7.40;;;;;;;-148.82;100.00;60434.72;5012096;28;20887;-69
2023/04/17 04:46:01;;;;;;;8.47;7.77;;;;;;;-148.82;100.00;60434.72;4988358;28;20767;-70
2023/04/17 04:48:29;;;;;;;7.83;7.23;;;;;;;-148.82;100.00;60434.72;5015184;28;20228;-70
2023/04/17 04:50:57;;;;;;;9.40;8.43;;;;;;;2.86;nan;97336.28;5014019;28;20207;-72
2023/04/17 04:53:26;;;;;;;9.43;8.63;;;;;;;2.87;nan;97335.34;4983957;28;20622;-69
2023/04/17 04:55:58;;;;;;;8.80;8.07;;;;;;;-148.82;100.00;60434.72;4997302;28;20204;-71
2023/04/17 04:58:32;;;;;;;8.47;7.77;;;;;;;-148.82;100.00;60434.72;5014326;28;20211;-69
2023/04/17 05:00:59;;;;;;;9.40;8.47;;;;;;;-148.82;100.00;60434.72;4990659;28;20588;-71
2023/04/17 05:03:27;;;;;;;8.27;7.53;;;;;;;3.12;nan;97335.81;5011288;28;20719;-68
2023/04/17 05:05:55;;;;;;;8.17;7.47;;;;;;;3.18;nan;97337.09;5015454;28;20207;-70
2023/04/17 05:08:22;;;;;;;8.17;7.40;;;;;;;3.18;nan;97343.13;4989384;28;20251;-69
2023/04/17 05:10:53;;;;;;;8.93;8.13;;;;;;;3.31;nan;97347.31;5000223;28;20411;-70
2023/04/17 05:13:24;;;;;;;9.10;7.60;;;;;;;3.43;nan;97342.81;4993135;28;21040;-69
2023/04/17 05:15:52;;;;;;;8.07;7.37;;;;;;;3.48;nan;97338.00;4989075;28;20531;-70
2023/04/17 05:18:20;;;;;;;9.07;8.37;;;;;;;3.57;nan;97352.88;5010225;28;20577;-70
2023/04/17 05:20:48;;;;;;;7.97;7.30;;;;;;;3.65;nan;97346.97;5003359;28;20208;-70
2023/04/17 05:23:16;;;;;;;7.50;6.80;;;;;;;3.78;nan;97348.50;4977265;28;20537;-70
2023/04/17 05:25:44;;;;;;;8.93;8.13;;;;;;;3.81;nan;97348.22;5007516;28;20203;-68
2023/04/17 05:28:13;;;;;;;7.57;6.87;;;;;;;3.78;nan;97349.31;4943868;28;20437;-69
2023/04/17 05:30:44;;;;;;;8.03;7.27;;;;;;;3.73;nan;97348.91;5010611;28;20208;-68
2023/04/17 05:33:12;;;;;;;7.87;7.17;;;;;;;3.78;nan;97354.56;4993441;28;21057;-68
2023/04/17 05:35:40;;;;;;;7.90;7.27;;;;;;;3.81;nan;97351.69;5009301;28;20759;-68
2023/04/17 05:38:08;;;;;;;7.07;6.53;;;;;;;3.69;nan;97347.50;5004889;28;20422;-70
2023/04/17 05:40:36;;;;;;;7.63;7.03;;;;;;;3.92;nan;97355.94;4991295;28;20215;-68
2023/04/17 05:43:08;;;;;;;8.47;7.70;;;;;;;4.07;nan;97350.31;4941023;28;20251;-70
2023/04/17 05:45:37;;;;;;;8.63;7.93;;;;;;;4.19;nan;97354.44;5009738;28;20212;-70
2023/04/17 05:48:05;;;;;;;8.47;7.77;;;;;;;4.43;nan;97358.41;4989208;28;20211;-69
2023/04/17 05:50:33;;;;;;;8.90;8.10;;;;;;;4.51;nan;97355.06;5004744;28;20231;-69
2023/04/17 05:53:01;;;;;;;8.00;7.30;;;;;;;4.62;nan;97347.88;5013491;28;20647;-69
2023/04/17 05:55:28;;;;;;;8.70;7.93;;;;;;;4.72;nan;97355.72;4981461;28;20212;-69
2023/04/17 05:57:56;;;;;;;8.90;8.00;;;;;;;4.80;nan;97349.75;4962676;28;20247;-70
2023/04/17 06:00:25;;;;;;;8.37;7.57;;;;;;;5.01;nan;97348.72;5007881;28;20281;-70
2023/04/17 06:02:54;;;;;;;9.70;8.80;;;;;;;5.16;nan;97347.28;4990745;28;20849;-68
2023/04/17 06:05:22;;;;;;;8.37;7.60;;;;;;;5.31;nan;97352.88;5008162;28;20213;-70
2023/04/17 06:07:50;;;;;;;7.77;7.17;;;;;;;5.57;nan;97349.53;5012637;28;20538;-69
2023/04/17 06:10:19;;;;;;;7.67;6.97;;;;;;;5.62;nan;97349.91;4989612;28;20709;-70
2023/04/17 06:12:46;;;;;;;8.17;7.43;;;;;;;5.82;nan;97349.78;5014133;28;20235;-69
2023/04/17 06:15:14;;;;;;;7.30;6.70;;;;;;;5.94;nan;97353.03;4963520;28;20502;-70
2023/04/17 06:17:42;;;;;;;7.43;6.73;;;;;;;6.00;nan;97348.94;5009548;28;20402;-70
2023/04/17 06:20:12;;;;;;;8.93;7.77;;;;;;;6.22;nan;97345.88;4989223;28;20544;-69
2023/04/17 06:22:43;;;;;;;10.33;9.43;;;;;;;6.19;nan;97347.97;5006171;28;20262;-68
2023/04/17 06:25:10;;;;;;;8.47;7.77;;;;;;;6.25;nan;97341.28;4986681;28;20669;-70
2023/04/17 06:27:38;;;;;;;7.90;7.30;;;;;;;6.24;nan;97343.09;5007741;28;20208;-69
2023/04/17 06:30:07;;;;;;;10.03;9.23;;;;;;;6.49;nan;97340.66;4959701;28;20223;-69
2023/04/17 06:32:35;;;;;;;7.77;7.13;;;;;;;6.36;nan;97341.88;5008181;28;21153;-69
2023/04/17 06:35:03;;;;;;;6.97;6.47;;;;;;;6.27;nan;97334.91;4988667;28;20543;-69
2023/04/17 06:37:32;;;;;;;7.83;7.20;;;;;;;6.46;nan;97335.69;5005650;28;20207;-70
2023/04/17 06:39:59;;;;;;;7.13;6.63;;;;;;;6.49;nan;97340.66;5013726;28;20210;-70
2023/04/17 06:42:27;;;;;;;7.20;6.60;;;;;;;6.53;nan;97331.47;4982378;28;20208;-69
2023/04/17 06:44:55;;;;;;;7.70;7.10;;;;;;;6.75;nan;97338.00;4961852;28;21012;-69
2023/04/17 06:47:24;;;;;;;8.23;7.53;;;;;;;6.89;nan;97328.69;5004695;28;20208;-69
2023/04/17 06:49:52;;;;;;;7.33;6.73;;;;;;;6.95;nan;97330.69;4990263;28;20227;-68
2023/04/17 06:52:21;;;;;;;8.03;7.33;;;;;;;7.04;nan;97325.50;5011017;28;20203;-68
2023/04/17 06:54:50;;;;;;;6.77;6.27;;;;;;;7.15;nan;97319.09;5015752;28;20204;-70
2023/04/17 06:57:17;;;;;;;7.53;6.87;;;;;;;7.32;nan;97331.38;4992069;28;20212;-71
2023/04/17 06:59:45;;;;;;;7.77;7.10;;;;;;;7.57;nan;97323.50;5012962;28;20570;-69
2023/04/17 07:02:13;;;;;;;6.70;6.20;;;;;;;7.44;nan;97328.44;4960723;28;20246;-71
2023/04/17 07:04:41;;;;;;;7.50;6.90;;;;;;;7.52;nan;97320.53;4989088;28;20611;-72
2023/04/17 07:07:09;;;;;;;5.80;5.37;;;;;;;7.84;nan;97326.06;5010462;28;20544;-71
2023/04/17 07:09:37;;;;;;;6.73;6.17;;;;;;;7.89;nan;97329.84;5007594;28;20220;-70
2023/04/17 07:12:06;;;;;;;6.27;5.73;;;;;;;8.09;nan;97340.91;5011266;28;20354;-69
2023/04/17 07:14:35;;;;;;;6.80;6.30;;;;;;;8.15;nan;97334.16;4988741;28;20362;-71
2023/04/17 07:17:03;;;;;;;6.10;5.70;;;;;;;7.96;nan;97343.22;4964781;28;20427;-71
2023/04/17 07:19:32;;;;;;;6.30;5.80;;;;;;;7.78;nan;97338.91;4983514;28;20811;-70
2023/04/17 07:22:00;;;;;;;5.70;5.30;;;;;;;7.77;nan;97336.41;5013305;28;20200;-70
2023/04/17 07:24:28;;;;;;;6.60;6.10;;;;;;;8.09;nan;97346.16;5004189;28;20656;-69
2023/04/17 07:26:56;;;;;;;6.13;5.73;;;;;;;7.70;nan;97344.16;5010392;28;20731;-69
2023/04/17 07:29:25;;;;;;;6.67;6.07;;;;;;;8.01;nan;97348.81;4982259;28;20231;-70
2023/04/17 07:31:53;;;;;;;6.30;5.90;;;;;;;8.42;nan;97345.38;4961502;28;20366;-69
2023/04/17 07:34:24;;;;;;;6.70;6.10;;;;;;;8.62;nan;97347.66;5008147;28;20266;-70
2023/04/17 07:36:52;;;;;;;6.37;5.97;;;;;;;9.02;nan;97347.75;4981561;28;20601;-70
2023/04/17 07:39:19;;;;;;;6.07;5.67;;;;;;;9.50;nan;97345.09;5011792;28;20971;-69
2023/04/17 07:41:48;;;;;;;5.67;5.27;;;;;;;9.63;nan;97348.00;5008591;28;20757;-70
2023/04/17 07:44:16;;;;;;;5.00;4.70;;;;;;;9.72;nan;97343.50;4992366;28;20242;-70
2023/04/17 07:46:46;;;;;;;5.20;4.70;;;;;;;9.50;nan;97353.03;4965626;28;20223;-71
2023/04/17 07:49:13;;;;;;;4.83;4.43;;;;;;;9.68;nan;97347.50;5012660;28;20203;-70
2023/04/17 07:51:42;;;;;;;5.70;5.30;;;;;;;9.54;nan;97349.84;4980853;28;20660;-70
2023/04/17 07:54:09;;;;;;;4.70;4.40;;;;;;;9.66;nan;97354.75;5011032;28;20226;-70
2023/04/17 07:56:37;;;;;;;5.07;4.67;;;;;;;9.63;nan;97363.03;5009295;28;20215;-70
2023/04/17 07:59:05;;;;;;;4.80;4.50;;;;;;;9.64;nan;97346.16;5013371;28;20207;-69
2023/04/17 08:01:32;;;;;;;4.70;4.40;;;;;;;9.45;nan;97353.53;4988041;28;20212;-70
2023/04/17 08:04:01;;;;;;;4.87;4.57;;;;;;;9.44;nan;97357.19;4965996;28;20381;-69
2023/04/17 08:06:30;;;;;;;4.73;4.43;;;;;;;9.18;nan;97350.34;4987867;28;20233;-69
2023/04/17 08:08:58;;;;;;;3.97;3.77;;;;;;;9.27;nan;97356.44;5013841;28;20292;-68
2023/04/17 08:11:26;;;;;;;4.00;3.80;;;;;;;9.18;nan;97355.63;5013078;28;20292;-69
2023/04/17 08:13:54;;;;;;;4.50;4.20;;;;;;;9.35;nan;97359.03;5008354;28;20224;-69
2023/04/17 08:16:21;;;;;;;4.80;4.43;;;;;;;9.34;nan;97359.22;4987336;28;20653;-68
2023/04/17 08:18:49;;;;;;;4.57;4.27;;;;;;;9.59;nan;97353.78;4956357;28;21094;-69
2023/04/17 08:21:18;;;;;;;3.90;3.70;;;;;;;10.09;nan;97368.41;4986468;28;20208;-68
2023/04/17 08:23:46;;;;;;;5.23;4.80;;;;;;;10.23;nan;97369.47;5005168;28;20330;-70
2023/04/17 08:26:17;;;;;;;6.20;5.60;;;;;;;10.37;nan;97372.31;5015198;28;20272;-69
2023/04/17 08:28:44;;;;;;;4.63;4.33;;;;;;;10.61;nan;97368.66;5009211;28;20241;-69
2023/04/17 08:31:12;;;;;;;4.53;4.23;;;;;;;10.60;nan;97363.53;4985817;28;20228;-68
2023/04/17 08:33:40;;;;;;;4.30;4.00;;;;;;;10.90;nan;97375.03;5005235;28;20232;-70
2023/04/17 08:36:09;;;;;;;4.83;4.53;;;;;;;10.93;nan;97374.66;4942830;28;20215;-69
2023/04/17 08:38:38;;;;;;;3.70;3.47;;;;;;;11.05;nan;97369.75;5007781;28;20204;-69
2023/04/17 08:41:12;;;;;;;3.50;3.30;;;;;;;10.83;nan;97366.16;5009941;28;20721;-70
2023/04/17 08:43:39;;;;;;;4.20;3.80;;;;;;;10.64;nan;97360.34;5009516;28;20292;-70
2023/04/17 08:46:07;;;;;;;4.40;4.20;;;;;;;10.41;nan;97363.84;5008141;28;20211;-69
2023/04/17 08:48:35;;;;;;;4.43;4.23;;;;;;;10.21;nan;97370.63;4985947;28;20218;-70
2023/04/17 08:51:03;;;;;;;3.77;3.57;;;;;;;9.98;nan;97364.31;4942681;28;20655;-69
2023/04/17 08:53:31;;;;;;;3.77;3.57;;;;;;;9.98;nan;97364.31;5009309;28;20258;-70
2023/04/17 08:56:04;;;;;;;4.63;4.37;;;;;;;10.12;nan;97362.75;5009450;28;21100;-69
2023/04/17 08:58:33;;;;;;;4.70;4.40;;;;;;;10.18;nan;97363.84;5006538;28;20361;-70
2023/04/17 09:01:08;;;;;;;4.43;4.13;;;;;;;10.14;nan;97367.84;5013406;28;20598;-69
2023/04/17 09:03:40;;;;;;;3.87;3.63;;;;;;;10.27;nan;97364.63;4986260;28;20230;-70
2023/04/17 09:06:09;;;;;;;3.90;3.70;;;;;;;10.49;nan;97378.06;4963068;28;20549;-69
2023/04/17 09:08:37;;;;;;;4.50;4.20;;;;;;;10.40;nan;97372.00;4988556;28;20215;-70
2023/04/17 09:11:16;;;;;;;4.27;3.87;;;;;;;10.18;nan;97363.84;5012733;28;20231;-69
2023/04/17 09:13:44;;;;;;;4.73;4.43;;;;;;;10.14;nan;97367.84;4981947;28;20227;-69
2023/04/17 09:16:14;;;;;;;4.13;3.93;;;;;;;10.31;nan;97368.56;5011902;28;20265;-70
2023/04/17 09:18:44;;;;;;;4.10;3.80;;;;;;;10.45;nan;97359.03;4980747;28;20575;-70
2023/04/17 09:21:13;;;;;;;4.77;4.47;;;;;;;10.63;nan;97356.06;4964767;28;20212;-69
2023/04/17 09:23:49;;;;;;;4.00;3.80;;;;;;;10.52;nan;97354.66;4981920;28;20783;-69
2023/04/17 09:26:19;;;;;;;4.43;4.13;;;;;;;10.89;nan;97361.94;5012361;28;20754;-70
2023/04/17 09:29:09;;;;;;;4.20;4.00;;;;;;;10.60;nan;97361.72;5004912;28;20437;-71
2023/04/17 09:31:38;;;;;;;4.37;4.07;;;;;;;10.48;nan;97363.97;5006986;28;20755;-71
2023/04/17 09:34:07;;;;;;;3.93;3.70;;;;;;;10.78;nan;97364.03;4985149;28;20774;-71
2023/04/17 09:36:37;;;;;;;3.97;3.67;;;;;;;10.97;nan;97361.84;4936423;28;20348;-71
2023/04/17 09:39:06;;;;;;;3.83;3.53;;;;;;;10.87;nan;97356.84;4989077;28;20509;-71
2023/04/17 09:41:38;;;;;;;3.90;3.70;;;;;;;10.90;nan;97353.81;5007729;28;20199;-71
2023/04/17 09:44:06;;;;;;;3.93;3.63;;;;;;;10.99;nan;97358.03;5011835;28;20227;-69
2023/04/17 09:46:36;;;;;;;4.00;3.70;;;;;;;10.81;nan;97357.56;5008308;28;20285;-70
2023/04/17 09:49:09;;;;;;;2.97;2.87;;;;;;;10.80;nan;97355.91;4986548;28;20212;-70
2023/04/17 09:51:38;;;;;;;3.50;3.30;;;;;;;10.91;nan;97358.13;4956388;28;20231;-71
2023/04/17 09:54:06;;;;;;;3.80;2.90;;;;;;;11.04;nan;97364.59;4983298;28;20235;-69
2023/04/17 09:56:36;;;;;;;4.00;3.70;;;;;;;10.89;nan;97368.09;5011189;28;20277;-71
2023/04/17 09:59:05;;;;;;;3.60;3.40;;;;;;;11.04;nan;97357.50;5011652;28;20568;-72
2023/04/17 10:01:34;;;;;;;2.80;2.70;;;;;;;11.13;nan;97356.38;5006536;28;20239;-73
2023/04/17 10:04:03;;;;;;;2.90;2.80;;;;;;;11.23;nan;97349.97;4985779;28;20224;-72
2023/04/17 10:06:36;;;;;;;2.80;2.70;;;;;;;11.64;nan;97354.75;4987880;28;20272;-73
2023/04/17 10:09:06;;;;;;;2.87;2.67;;;;;;;11.59;nan;97351.84;5008476;28;20215;-72
2023/04/17 10:11:37;;;;;;;2.83;2.73;;;;;;;11.73;nan;97350.16;4987568;28;20651;-73
2023/04/17 10:14:09;;;;;;;2.63;2.53;;;;;;;12.23;nan;97349.47;5012954;28;20239;-71
2023/04/17 10:16:38;;;;;;;2.50;2.40;;;;;;;12.54;nan;97337.66;5001984;28;20207;-73
2023/04/17 10:19:37;;;;;;;2.30;2.20;;;;;;;12.74;nan;97341.31;4988171;28;20258;-72
2023/04/17 10:22:31;;;;;;;2.13;2.03;;;;;;;13.03;nan;97339.44;4941396;28;20206;-73
2023/04/17 10:25:18;;;;;;;2.20;2.10;;;;;;;12.80;nan;97336.22;4984617;28;20667;-71
2023/04/17 10:27:49;;;;;;;2.70;2.60;;;;;;;12.76;nan;97341.09;5003385;28;20208;-72
2023/04/17 10:30:19;;;;;;;2.33;2.23;;;;;;;11.99;nan;97333.69;5008640;28;20279;-73
2023/04/17 10:33:26;;;;;;;2.40;2.30;;;;;;;11.78;nan;97328.38;5002917;28;20443;-73
2023/04/17 10:35:54;;;;;;;2.40;2.30;;;;;;;11.58;nan;97337.78;4981714;28;21111;-71
2023/04/17 10:38:32;;;;;;;2.50;2.40;;;;;;;11.57;nan;97336.13;4958195;28;20207;-71
2023/04/17 10:41:04;;;;;;;2.07;1.97;;;;;;;11.45;nan;97329.63;4984375;28;20812;-72
2023/04/17 10:43:33;;;;;;;2.07;1.97;;;;;;;11.33;nan;97337.25;5006306;28;20297;-72
2023/04/17 10:46:03;;;;;;;2.00;1.90;;;;;;;11.24;nan;97333.88;5010781;28;20722;-71
2023/04/17 10:48:35;;;;;;;1.57;1.50;;;;;;;10.97;nan;97338.81;5011007;28;20300;-73
2023/04/17 10:51:36;;;;;;;1.60;1.60;;;;;;;11.12;nan;97341.47;4989323;28;20800;-72
2023/04/17 10:54:05;;;;;;;1.60;1.60;;;;;;;10.83;nan;97334.34;4967165;28;20235;-73
2023/04/17 10:56:36;;;;;;;1.50;1.50;;;;;;;10.90;nan;97351.16;4987884;28;20219;-72
2023/04/17 10:59:07;;;;;;;1.60;1.60;;;;;;;10.59;nan;97344.19;5007981;28;20637;-73
2023/04/17 11:01:39;;;;;;;2.83;2.30;;;;;;;10.05;nan;97351.22;5008056;28;20245;-72
2023/04/17 11:04:07;;;;;;;2.00;1.90;;;;;;;9.71;nan;97347.13;5007140;28;20281;-71
2023/04/17 11:06:39;;;;;;;2.10;2.00;;;;;;;9.43;nan;97349.41;4982244;28;20765;-72
2023/04/17 11:09:08;;;;;;;2.53;2.43;;;;;;;9.31;nan;97341.06;4960855;28;21276;-71
2023/04/17 11:11:37;;;;;;;2.63;2.53;;;;;;;9.27;nan;97340.56;4991923;28;20266;-71
2023/04/17 11:14:14;;;;;;;2.90;2.70;;;;;;;9.33;nan;97347.00;5012501;28;20718;-71
2023/04/17 11:16:43;;;;;;;2.87;2.77;;;;;;;9.35;nan;97342.34;5006581;28;20363;-71
2023/04/17 11:19:13;;;;;;;2.83;2.70;;;;;;;9.44;nan;97341.31;5013784;28;20214;-72
2023/04/17 11:21:42;;;;;;;4.63;3.83;;;;;;;9.63;nan;97355.09;4985782;28;20211;-73
2023/04/17 11:24:10;;;;;;;5.30;5.00;;;;;;;9.33;nan;97350.44;5016810;28;20246;-72
2023/04/17 11:26:42;;;;;;;3.10;2.90;;;;;;;9.14;nan;97358.81;4945709;28;20227;-72
2023/04/17 11:29:15;;;;;;;3.50;3.30;;;;;;;8.91;nan;97363.00;5019940;28;20207;-72
2023/04/17 11:31:43;;;;;;;3.87;3.63;;;;;;;9.03;nan;97363.44;5019432;28;20316;-72
2023/04/17 11:34:11;;;;;;;3.67;3.47;;;;;;;8.89;nan;97361.50;5031164;28;20462;-71
2023/04/17 11:36:39;;;;;;;3.30;3.10;;;;;;;8.96;nan;97368.59;4993233;28;20207;-73
2023/04/17 11:39:07;;;;;;;2.93;2.83;;;;;;;8.67;nan;97367.31;5014634;28;20327;-72
2023/04/17 11:41:38;;;;;;;2.90;2.80;;;;;;;8.51;nan;97362.88;4960816;28;21140;-74
2023/04/17 11:44:08;;;;;;;3.50;3.23;;;;;;;8.55;nan;97371.31;4990502;28;20231;-72
2023/04/17 11:46:38;;;;;;;3.30;3.10;;;;;;;8.63;nan;97370.44;5010744;28;20208;-73
2023/04/17 11:49:06;;;;;;;3.10;2.90;;;;;;;8.54;nan;97370.47;5015882;28;20509;-71
2023/04/17 11:51:35;;;;;;;2.90;2.70;;;;;;;8.62;nan;97368.81;5011284;28;20266;-72
2023/04/17 11:54:02;;;;;;;3.53;3.37;;;;;;;8.76;nan;97375.22;4981932;28;20238;-72
2023/04/17 11:56:31;;;;;;;2.60;2.50;;;;;;;8.68;nan;97373.41;4995665;28;20216;-73